sensor_id;sensor_type;location;lat;lon;timestamp;temperature;humidity
22319;DHT22;11327;52.334;9.506;2023-03-19T00:01:05;10.30;99.90
22319;DHT22;11327;52.334;9.506;2023-03-19T00:04:27;10.30;99.90
22319;DHT22;11327;52.334;9.506;2023-03-19T00:07:47;10.20;99.90
22319;DHT22;11327;52.334;9.506;2023-03-19T00:11:09;10.20;99.90
22319;DHT22;11327;52.334;9.506;2023-03-19T00:14:31;10.10;99.90
22319;DHT22;11327;52.334;9.506;2023-03-19T00:17:51;10.10;99.90
22319;DHT22;11327;52.334;9.506;2023-03-19T00:21:13;10.10;99.90
22319;DHT22;11327;52.334;9.506;2023-03-19T00:24:34;10.00;99.90
22319;DHT22;11327;52.334;9.506;2023-03-19T00:27:54;10.00;99.90
22319;DHT22;11327;52.334;9.506;2023-03-19T00:31:15;10.00;99.90
22319;DHT22;11327;52.334;9.506;2023-03-19T00:34:36;10.00;99.90
22319;DHT22;11327;52.334;9.506;2023-03-19T00:37:57;9.90;99.90
22319;DHT22;11327;52.334;9.506;2023-03-19T00:41:18;9.80;99.90
22319;DHT22;11327;52.334;9.506;2023-03-19T00:44:40;9.80;99.90
22319;DHT22;11327;52.334;9.506;2023-03-19T00:48:00;9.70;99.90
22319;DHT22;11327;52.334;9.506;2023-03-19T00:51:22;9.70;99.90
22319;DHT22;11327;52.334;9.506;2023-03-19T00:54:43;9.60;99.90
22319;DHT22;11327;52.334;9.506;2023-03-19T00:58:04;9.60;99.90
22319;DHT22;11327;52.334;9.506;2023-03-19T01:01:26;9.60;99.90
22319;DHT22;11327;52.334;9.506;2023-03-19T01:04:47;9.60;99.90
22319;DHT22;11327;52.334;9.506;2023-03-19T01:08:08;9.50;99.90
22319;DHT22;11327;52.334;9.506;2023-03-19T01:11:30;9.40;99.90
22319;DHT22;11327;52.334;9.506;2023-03-19T01:14:52;9.40;99.90
22319;DHT22;11327;52.334;9.506;2023-03-19T01:18:13;9.40;99.90
22319;DHT22;11327;52.334;9.506;2023-03-19T01:21:33;9.20;99.90
22319;DHT22;11327;52.334;9.506;2023-03-19T01:24:55;9.30;99.90
22319;DHT22;11327;52.334;9.506;2023-03-19T01:28:17;9.20;99.90
22319;DHT22;11327;52.334;9.506;2023-03-19T01:31:38;9.20;99.90
22319;DHT22;11327;52.334;9.506;2023-03-19T01:34:58;9.20;99.90
22319;DHT22;11327;52.334;9.506;2023-03-19T01:38:19;9.20;99.90
22319;DHT22;11327;52.334;9.506;2023-03-19T01:41:40;9.20;99.90
22319;DHT22;11327;52.334;9.506;2023-03-19T01:45:02;9.10;99.90
22319;DHT22;11327;52.334;9.506;2023-03-19T01:48:31;9.00;99.90
22319;DHT22;11327;52.334;9.506;2023-03-19T01:51:51;9.00;99.90
22319;DHT22;11327;52.334;9.506;2023-03-19T01:55:12;9.00;99.90
22319;DHT22;11327;52.334;9.506;2023-03-19T01:58:33;9.00;99.90
22319;DHT22;11327;52.334;9.506;2023-03-19T02:05:19;8.90;99.90
22319;DHT22;11327;52.334;9.506;2023-03-19T02:08:42;8.80;99.90
22319;DHT22;11327;52.334;9.506;2023-03-19T02:12:03;8.80;99.90
22319;DHT22;11327;52.334;9.506;2023-03-19T02:15:24;8.70;99.90
22319;DHT22;11327;52.334;9.506;2023-03-19T02:18:46;8.60;99.90
22319;DHT22;11327;52.334;9.506;2023-03-19T02:22:08;8.60;99.90
22319;DHT22;11327;52.334;9.506;2023-03-19T02:29:10;8.50;99.90
22319;DHT22;11327;52.334;9.506;2023-03-19T02:32:31;8.40;99.90
22319;DHT22;11327;52.334;9.506;2023-03-19T02:35:52;8.40;99.90
22319;DHT22;11327;52.334;9.506;2023-03-19T02:39:58;8.30;99.90
22319;DHT22;11327;52.334;9.506;2023-03-19T02:42:41;8.20;99.90
22319;DHT22;11327;52.334;9.506;2023-03-19T02:46:07;8.20;99.90
22319;DHT22;11327;52.334;9.506;2023-03-19T02:49:29;8.10;99.90
22319;DHT22;11327;52.334;9.506;2023-03-19T02:52:52;7.90;99.90
22319;DHT22;11327;52.334;9.506;2023-03-19T02:56:13;7.80;99.90
22319;DHT22;11327;52.334;9.506;2023-03-19T02:59:34;7.80;99.90
22319;DHT22;11327;52.334;9.506;2023-03-19T03:02:56;7.90;99.90
22319;DHT22;11327;52.334;9.506;2023-03-19T03:06:17;8.00;99.90
22319;DHT22;11327;52.334;9.506;2023-03-19T03:09:38;8.00;99.90
22319;DHT22;11327;52.334;9.506;2023-03-19T03:12:59;8.10;99.90
22319;DHT22;11327;52.334;9.506;2023-03-19T03:16:20;8.10;99.90
22319;DHT22;11327;52.334;9.506;2023-03-19T03:19:41;8.20;99.90
22319;DHT22;11327;52.334;9.506;2023-03-19T03:23:01;8.20;99.90
22319;DHT22;11327;52.334;9.506;2023-03-19T03:26:22;8.30;99.90
22319;DHT22;11327;52.334;9.506;2023-03-19T03:29:43;8.30;99.90
22319;DHT22;11327;52.334;9.506;2023-03-19T03:33:03;8.30;99.90
22319;DHT22;11327;52.334;9.506;2023-03-19T03:36:24;8.20;99.90
22319;DHT22;11327;52.334;9.506;2023-03-19T03:39:45;8.20;99.90
22319;DHT22;11327;52.334;9.506;2023-03-19T03:43:06;8.20;99.90
22319;DHT22;11327;52.334;9.506;2023-03-19T03:46:27;8.20;99.90
22319;DHT22;11327;52.334;9.506;2023-03-19T03:49:47;8.20;99.90
22319;DHT22;11327;52.334;9.506;2023-03-19T03:53:08;8.20;99.90
22319;DHT22;11327;52.334;9.506;2023-03-19T03:56:29;8.20;99.90
22319;DHT22;11327;52.334;9.506;2023-03-19T03:59:51;8.20;99.90
22319;DHT22;11327;52.334;9.506;2023-03-19T04:03:12;8.10;99.90
22319;DHT22;11327;52.334;9.506;2023-03-19T04:06:33;8.00;99.90
22319;DHT22;11327;52.334;9.506;2023-03-19T04:09:56;8.00;99.90
22319;DHT22;11327;52.334;9.506;2023-03-19T04:13:17;7.90;99.90
22319;DHT22;11327;52.334;9.506;2023-03-19T04:16:38;8.00;99.90
22319;DHT22;11327;52.334;9.506;2023-03-19T04:19:59;8.00;99.90
22319;DHT22;11327;52.334;9.506;2023-03-19T04:23:20;8.10;99.90
22319;DHT22;11327;52.334;9.506;2023-03-19T04:26:40;8.10;99.90
22319;DHT22;11327;52.334;9.506;2023-03-19T04:30:02;8.20;99.90
22319;DHT22;11327;52.334;9.506;2023-03-19T04:33:24;8.20;99.90
22319;DHT22;11327;52.334;9.506;2023-03-19T04:36:44;8.10;99.90
22319;DHT22;11327;52.334;9.506;2023-03-19T04:40:06;8.10;99.90
22319;DHT22;11327;52.334;9.506;2023-03-19T04:43:27;8.10;99.90
22319;DHT22;11327;52.334;9.506;2023-03-19T04:46:48;8.10;99.90
22319;DHT22;11327;52.334;9.506;2023-03-19T04:50:09;8.10;99.90
22319;DHT22;11327;52.334;9.506;2023-03-19T04:53:30;8.00;99.90
22319;DHT22;11327;52.334;9.506;2023-03-19T04:56:52;8.00;99.90
22319;DHT22;11327;52.334;9.506;2023-03-19T05:00:14;7.90;99.90
22319;DHT22;11327;52.334;9.506;2023-03-19T05:03:35;8.00;99.90
22319;DHT22;11327;52.334;9.506;2023-03-19T05:06:56;8.00;99.90
22319;DHT22;11327;52.334;9.506;2023-03-19T05:10:17;8.00;99.90
22319;DHT22;11327;52.334;9.506;2023-03-19T05:13:38;8.00;99.90
22319;DHT22;11327;52.334;9.506;2023-03-19T05:16:59;8.10;99.90
22319;DHT22;11327;52.334;9.506;2023-03-19T05:20:20;8.00;99.90
22319;DHT22;11327;52.334;9.506;2023-03-19T05:23:41;8.00;99.90
22319;DHT22;11327;52.334;9.506;2023-03-19T05:27:02;8.10;99.90
22319;DHT22;11327;52.334;9.506;2023-03-19T05:30:23;8.10;99.90
22319;DHT22;11327;52.334;9.506;2023-03-19T05:33:43;8.20;99.90
22319;DHT22;11327;52.334;9.506;2023-03-19T05:37:04;8.20;99.90
22319;DHT22;11327;52.334;9.506;2023-03-19T05:40:26;8.30;99.90
22319;DHT22;11327;52.334;9.506;2023-03-19T05:43:47;8.30;99.90
22319;DHT22;11327;52.334;9.506;2023-03-19T05:47:09;8.40;99.90
22319;DHT22;11327;52.334;9.506;2023-03-19T05:50:31;8.40;99.90
22319;DHT22;11327;52.334;9.506;2023-03-19T05:53:53;8.40;99.90
22319;DHT22;11327;52.334;9.506;2023-03-19T05:57:14;8.50;99.90
22319;DHT22;11327;52.334;9.506;2023-03-19T06:00:35;8.60;99.90
22319;DHT22;11327;52.334;9.506;2023-03-19T06:03:56;8.60;99.90
22319;DHT22;11327;52.334;9.506;2023-03-19T06:07:17;8.70;99.90
22319;DHT22;11327;52.334;9.506;2023-03-19T06:10:37;8.80;99.90
22319;DHT22;11327;52.334;9.506;2023-03-19T06:13:58;8.80;99.90
22319;DHT22;11327;52.334;9.506;2023-03-19T06:17:19;8.90;99.90
22319;DHT22;11327;52.334;9.506;2023-03-19T06:20:39;8.90;99.90
22319;DHT22;11327;52.334;9.506;2023-03-19T06:24:00;8.90;99.90
22319;DHT22;11327;52.334;9.506;2023-03-19T06:27:21;8.90;99.90
22319;DHT22;11327;52.334;9.506;2023-03-19T06:30:42;9.00;99.90
22319;DHT22;11327;52.334;9.506;2023-03-19T06:34:03;9.00;99.90
22319;DHT22;11327;52.334;9.506;2023-03-19T06:37:23;8.90;99.90
22319;DHT22;11327;52.334;9.506;2023-03-19T06:40:44;8.90;99.90
22319;DHT22;11327;52.334;9.506;2023-03-19T06:44:05;8.90;99.90
22319;DHT22;11327;52.334;9.506;2023-03-19T06:47:27;9.00;99.90
22319;DHT22;11327;52.334;9.506;2023-03-19T06:50:47;9.00;99.90
22319;DHT22;11327;52.334;9.506;2023-03-19T06:54:08;9.00;99.90
22319;DHT22;11327;52.334;9.506;2023-03-19T06:57:29;9.00;99.90
22319;DHT22;11327;52.334;9.506;2023-03-19T07:00:50;9.00;99.90
22319;DHT22;11327;52.334;9.506;2023-03-19T07:04:11;9.10;99.90
22319;DHT22;11327;52.334;9.506;2023-03-19T07:07:31;9.10;99.90
22319;DHT22;11327;52.334;9.506;2023-03-19T07:10:52;9.20;99.90
22319;DHT22;11327;52.334;9.506;2023-03-19T07:14:13;9.20;99.90
22319;DHT22;11327;52.334;9.506;2023-03-19T07:17:33;9.30;99.90
22319;DHT22;11327;52.334;9.506;2023-03-19T07:20:54;9.30;99.90
22319;DHT22;11327;52.334;9.506;2023-03-19T07:24:15;9.30;99.90
22319;DHT22;11327;52.334;9.506;2023-03-19T07:27:36;9.50;99.90
22319;DHT22;11327;52.334;9.506;2023-03-19T07:30:56;9.50;99.90
22319;DHT22;11327;52.334;9.506;2023-03-19T07:34:17;9.60;99.90
22319;DHT22;11327;52.334;9.506;2023-03-19T07:37:38;9.70;99.90
22319;DHT22;11327;52.334;9.506;2023-03-19T07:40:59;9.90;99.90
22319;DHT22;11327;52.334;9.506;2023-03-19T07:44:19;10.00;99.90
22319;DHT22;11327;52.334;9.506;2023-03-19T07:47:40;10.30;99.90
22319;DHT22;11327;52.334;9.506;2023-03-19T07:51:01;10.60;99.90
22319;DHT22;11327;52.334;9.506;2023-03-19T07:54:21;10.80;99.90
22319;DHT22;11327;52.334;9.506;2023-03-19T07:57:43;11.00;99.90
22319;DHT22;11327;52.334;9.506;2023-03-19T08:01:03;11.10;99.90
22319;DHT22;11327;52.334;9.506;2023-03-19T08:04:24;11.10;99.90
22319;DHT22;11327;52.334;9.506;2023-03-19T08:07:45;11.20;99.90
22319;DHT22;11327;52.334;9.506;2023-03-19T08:11:06;11.20;99.90
22319;DHT22;11327;52.334;9.506;2023-03-19T08:14:27;11.30;99.90
22319;DHT22;11327;52.334;9.506;2023-03-19T08:17:48;11.40;99.90
22319;DHT22;11327;52.334;9.506;2023-03-19T08:21:09;11.50;99.90
22319;DHT22;11327;52.334;9.506;2023-03-19T08:24:30;11.50;99.90
22319;DHT22;11327;52.334;9.506;2023-03-19T08:27:51;11.60;99.90
22319;DHT22;11327;52.334;9.506;2023-03-19T08:31:12;11.70;99.90
22319;DHT22;11327;52.334;9.506;2023-03-19T08:34:33;11.90;99.90
22319;DHT22;11327;52.334;9.506;2023-03-19T08:37:55;12.10;99.90
22319;DHT22;11327;52.334;9.506;2023-03-19T08:41:15;12.40;99.90
22319;DHT22;11327;52.334;9.506;2023-03-19T08:44:36;12.60;99.90
22319;DHT22;11327;52.334;9.506;2023-03-19T08:47:57;12.70;99.90
22319;DHT22;11327;52.334;9.506;2023-03-19T08:51:18;12.90;99.90
22319;DHT22;11327;52.334;9.506;2023-03-19T08:54:38;13.10;99.90
22319;DHT22;11327;52.334;9.506;2023-03-19T08:57:59;13.30;99.90
22319;DHT22;11327;52.334;9.506;2023-03-19T09:01:20;13.30;99.90
22319;DHT22;11327;52.334;9.506;2023-03-19T09:04:42;13.30;99.90
22319;DHT22;11327;52.334;9.506;2023-03-19T09:08:03;13.50;99.90
22319;DHT22;11327;52.334;9.506;2023-03-19T09:11:24;13.60;99.90
22319;DHT22;11327;52.334;9.506;2023-03-19T09:14:45;13.70;99.90
22319;DHT22;11327;52.334;9.506;2023-03-19T09:18:05;13.60;99.90
22319;DHT22;11327;52.334;9.506;2023-03-19T09:21:26;13.60;99.90
22319;DHT22;11327;52.334;9.506;2023-03-19T09:24:47;13.70;99.90
22319;DHT22;11327;52.334;9.506;2023-03-19T09:28:08;13.70;99.90
22319;DHT22;11327;52.334;9.506;2023-03-19T09:31:28;13.80;99.90
22319;DHT22;11327;52.334;9.506;2023-03-19T09:34:49;13.80;99.90
22319;DHT22;11327;52.334;9.506;2023-03-19T09:38:10;14.00;99.90
22319;DHT22;11327;52.334;9.506;2023-03-19T09:45:11;14.00;99.90
22319;DHT22;11327;52.334;9.506;2023-03-19T09:49:13;14.40;99.90
22319;DHT22;11327;52.334;9.506;2023-03-19T09:52:06;14.50;99.90
22319;DHT22;11327;52.334;9.506;2023-03-19T09:55:29;14.60;99.90
22319;DHT22;11327;52.334;9.506;2023-03-19T09:58:48;14.50;99.90
22319;DHT22;11327;52.334;9.506;2023-03-19T10:05:57;14.50;99.90
22319;DHT22;11327;52.334;9.506;2023-03-19T10:16:15;14.90;99.90
22319;DHT22;11327;52.334;9.506;2023-03-19T10:20:15;14.90;99.90
22319;DHT22;11327;52.334;9.506;2023-03-19T10:23:25;15.00;99.90
22319;DHT22;11327;52.334;9.506;2023-03-19T10:26:45;15.10;99.90
22319;DHT22;11327;52.334;9.506;2023-03-19T10:30:12;15.30;99.90
22319;DHT22;11327;52.334;9.506;2023-03-19T10:33:41;15.40;99.90
22319;DHT22;11327;52.334;9.506;2023-03-19T10:37:05;15.60;99.90
22319;DHT22;11327;52.334;9.506;2023-03-19T10:40:33;15.70;99.90
22319;DHT22;11327;52.334;9.506;2023-03-19T10:44:00;15.50;99.90
22319;DHT22;11327;52.334;9.506;2023-03-19T10:47:24;15.50;99.90
22319;DHT22;11327;52.334;9.506;2023-03-19T10:50:48;15.60;99.90
22319;DHT22;11327;52.334;9.506;2023-03-19T10:54:22;15.60;99.90
22319;DHT22;11327;52.334;9.506;2023-03-19T10:57:46;15.80;99.90
22319;DHT22;11327;52.334;9.506;2023-03-19T11:01:12;15.90;99.90
22319;DHT22;11327;52.334;9.506;2023-03-19T11:04:32;16.10;99.90
22319;DHT22;11327;52.334;9.506;2023-03-19T11:07:56;16.30;99.90
22319;DHT22;11327;52.334;9.506;2023-03-19T11:11:56;16.60;99.90
22319;DHT22;11327;52.334;9.506;2023-03-19T11:14:57;16.70;99.90
22319;DHT22;11327;52.334;9.506;2023-03-19T11:18:21;16.80;99.90
22319;DHT22;11327;52.334;9.506;2023-03-19T11:21:52;16.80;99.90
22319;DHT22;11327;52.334;9.506;2023-03-19T11:28:41;16.50;99.90
22319;DHT22;11327;52.334;9.506;2023-03-19T11:32:29;16.30;99.90
22319;DHT22;11327;52.334;9.506;2023-03-19T11:36:12;16.40;99.90
22319;DHT22;11327;52.334;9.506;2023-03-19T11:43:43;16.50;99.90
22319;DHT22;11327;52.334;9.506;2023-03-19T11:47:30;16.50;99.90
22319;DHT22;11327;52.334;9.506;2023-03-19T11:57:54;16.70;99.90
22319;DHT22;11327;52.334;9.506;2023-03-19T12:01:22;16.80;99.90
22319;DHT22;11327;52.334;9.506;2023-03-19T12:05:04;16.80;99.90
22319;DHT22;11327;52.334;9.506;2023-03-19T12:15:54;16.60;99.90
22319;DHT22;11327;52.334;9.506;2023-03-19T12:19:19;16.40;99.90
22319;DHT22;11327;52.334;9.506;2023-03-19T12:23:05;16.50;99.90
22319;DHT22;11327;52.334;9.506;2023-03-19T12:26:37;16.40;99.90
22319;DHT22;11327;52.334;9.506;2023-03-19T12:33:51;16.40;99.90
22319;DHT22;11327;52.334;9.506;2023-03-19T12:37:23;16.20;99.90
22319;DHT22;11327;52.334;9.506;2023-03-19T12:40:57;16.20;99.90
22319;DHT22;11327;52.334;9.506;2023-03-19T12:44:35;16.10;99.90
22319;DHT22;11327;52.334;9.506;2023-03-19T12:48:04;15.90;99.90
22319;DHT22;11327;52.334;9.506;2023-03-19T12:51:33;15.80;99.90
22319;DHT22;11327;52.334;9.506;2023-03-19T12:58:36;15.70;99.90
22319;DHT22;11327;52.334;9.506;2023-03-19T13:16:52;15.30;99.90
22319;DHT22;11327;52.334;9.506;2023-03-19T13:20:33;15.30;99.90
22319;DHT22;11327;52.334;9.506;2023-03-19T13:24:03;15.20;99.90
22319;DHT22;11327;52.334;9.506;2023-03-19T13:27:35;15.10;99.90
22319;DHT22;11327;52.334;9.506;2023-03-19T13:31:02;15.20;99.90
22319;DHT22;11327;52.334;9.506;2023-03-19T13:34:25;15.20;99.90
22319;DHT22;11327;52.334;9.506;2023-03-19T13:37:50;15.20;99.90
22319;DHT22;11327;52.334;9.506;2023-03-19T13:45:00;15.20;99.90
22319;DHT22;11327;52.334;9.506;2023-03-19T13:48:31;15.30;99.90
22319;DHT22;11327;52.334;9.506;2023-03-19T13:51:49;15.20;99.90
22319;DHT22;11327;52.334;9.506;2023-03-19T13:55:28;15.20;99.90
22319;DHT22;11327;52.334;9.506;2023-03-19T14:05:57;15.30;99.90
22319;DHT22;11327;52.334;9.506;2023-03-19T14:09:40;15.20;99.90
22319;DHT22;11327;52.334;9.506;2023-03-19T14:13:05;15.30;99.90
22319;DHT22;11327;52.334;9.506;2023-03-19T14:16:36;15.30;99.90
22319;DHT22;11327;52.334;9.506;2023-03-19T14:20:02;15.30;99.90
22319;DHT22;11327;52.334;9.506;2023-03-19T14:23:26;15.40;99.90
22319;DHT22;11327;52.334;9.506;2023-03-19T14:26:47;15.50;99.90
22319;DHT22;11327;52.334;9.506;2023-03-19T14:30:28;15.70;99.90
22319;DHT22;11327;52.334;9.506;2023-03-19T14:34:05;15.80;99.90
22319;DHT22;11327;52.334;9.506;2023-03-19T14:37:32;16.00;99.90
22319;DHT22;11327;52.334;9.506;2023-03-19T14:40:56;16.00;99.90
22319;DHT22;11327;52.334;9.506;2023-03-19T14:44:38;16.00;99.90
22319;DHT22;11327;52.334;9.506;2023-03-19T14:48:23;15.80;99.90
22319;DHT22;11327;52.334;9.506;2023-03-19T14:52:06;15.90;99.90
22319;DHT22;11327;52.334;9.506;2023-03-19T14:55:36;15.90;99.90
22319;DHT22;11327;52.334;9.506;2023-03-19T14:58:58;16.00;99.90
22319;DHT22;11327;52.334;9.506;2023-03-19T15:02:50;16.00;99.90
22319;DHT22;11327;52.334;9.506;2023-03-19T15:06:13;16.00;99.90
22319;DHT22;11327;52.334;9.506;2023-03-19T15:09:35;15.80;99.90
22319;DHT22;11327;52.334;9.506;2023-03-19T15:20:31;15.80;99.90
22319;DHT22;11327;52.334;9.506;2023-03-19T15:23:51;15.80;99.90
22319;DHT22;11327;52.334;9.506;2023-03-19T15:27:23;15.80;99.90
22319;DHT22;11327;52.334;9.506;2023-03-19T15:30:53;15.70;99.90
22319;DHT22;11327;52.334;9.506;2023-03-19T15:34:24;15.70;99.90
22319;DHT22;11327;52.334;9.506;2023-03-19T15:37:50;15.70;99.90
22319;DHT22;11327;52.334;9.506;2023-03-19T15:41:10;15.70;99.90
22319;DHT22;11327;52.334;9.506;2023-03-19T15:44:35;15.70;99.90
22319;DHT22;11327;52.334;9.506;2023-03-19T15:48:00;15.60;99.90
22319;DHT22;11327;52.334;9.506;2023-03-19T15:51:22;15.50;99.90
22319;DHT22;11327;52.334;9.506;2023-03-19T15:54:44;15.50;99.90
22319;DHT22;11327;52.334;9.506;2023-03-19T15:58:09;15.50;99.90
22319;DHT22;11327;52.334;9.506;2023-03-19T16:01:31;15.30;99.90
22319;DHT22;11327;52.334;9.506;2023-03-19T16:04:53;15.20;99.90
22319;DHT22;11327;52.334;9.506;2023-03-19T16:08:21;15.20;99.90
22319;DHT22;11327;52.334;9.506;2023-03-19T16:11:44;15.10;99.90
22319;DHT22;11327;52.334;9.506;2023-03-19T16:15:31;15.10;99.90
22319;DHT22;11327;52.334;9.506;2023-03-19T16:18:53;15.00;99.90
22319;DHT22;11327;52.334;9.506;2023-03-19T16:22:18;15.00;99.90
22319;DHT22;11327;52.334;9.506;2023-03-19T16:25:44;14.90;99.90
22319;DHT22;11327;52.334;9.506;2023-03-19T16:29:30;14.80;99.90
22319;DHT22;11327;52.334;9.506;2023-03-19T16:33:00;14.80;99.90
22319;DHT22;11327;52.334;9.506;2023-03-19T16:36:22;14.60;99.90
22319;DHT22;11327;52.334;9.506;2023-03-19T16:39:58;14.60;99.90
22319;DHT22;11327;52.334;9.506;2023-03-19T16:43:21;14.50;99.90
22319;DHT22;11327;52.334;9.506;2023-03-19T16:46:42;14.50;99.90
22319;DHT22;11327;52.334;9.506;2023-03-19T16:50:03;14.40;99.90
22319;DHT22;11327;52.334;9.506;2023-03-19T16:53:27;14.40;99.90
22319;DHT22;11327;52.334;9.506;2023-03-19T16:56:48;14.30;99.90
22319;DHT22;11327;52.334;9.506;2023-03-19T17:00:12;14.30;99.90
22319;DHT22;11327;52.334;9.506;2023-03-19T17:03:34;14.30;99.90
22319;DHT22;11327;52.334;9.506;2023-03-19T17:06:55;14.20;99.90
22319;DHT22;11327;52.334;9.506;2023-03-19T17:10:18;14.20;99.90
22319;DHT22;11327;52.334;9.506;2023-03-19T17:13:40;14.10;99.90
22319;DHT22;11327;52.334;9.506;2023-03-19T17:17:02;14.10;99.90
22319;DHT22;11327;52.334;9.506;2023-03-19T17:20:32;14.10;99.90
22319;DHT22;11327;52.334;9.506;2023-03-19T17:23:53;14.10;99.90
22319;DHT22;11327;52.334;9.506;2023-03-19T17:27:14;14.10;99.90
22319;DHT22;11327;52.334;9.506;2023-03-19T17:30:37;14.00;99.90
22319;DHT22;11327;52.334;9.506;2023-03-19T17:34:10;13.90;99.90
22319;DHT22;11327;52.334;9.506;2023-03-19T17:37:31;13.90;99.90
22319;DHT22;11327;52.334;9.506;2023-03-19T17:40:52;13.90;99.90
22319;DHT22;11327;52.334;9.506;2023-03-19T17:44:13;13.80;99.90
22319;DHT22;11327;52.334;9.506;2023-03-19T17:47:34;13.80;99.90
22319;DHT22;11327;52.334;9.506;2023-03-19T17:50:59;13.70;99.90
22319;DHT22;11327;52.334;9.506;2023-03-19T17:54:19;13.70;99.90
22319;DHT22;11327;52.334;9.506;2023-03-19T17:57:41;13.60;99.90
22319;DHT22;11327;52.334;9.506;2023-03-19T18:01:02;13.60;99.90
22319;DHT22;11327;52.334;9.506;2023-03-19T18:04:22;13.50;99.90
22319;DHT22;11327;52.334;9.506;2023-03-19T18:07:44;13.40;99.90
22319;DHT22;11327;52.334;9.506;2023-03-19T18:11:05;13.50;99.90
22319;DHT22;11327;52.334;9.506;2023-03-19T18:14:26;13.40;99.90
22319;DHT22;11327;52.334;9.506;2023-03-19T18:17:49;13.40;99.90
22319;DHT22;11327;52.334;9.506;2023-03-19T18:21:14;13.40;99.90
22319;DHT22;11327;52.334;9.506;2023-03-19T18:24:35;13.30;99.90
22319;DHT22;11327;52.334;9.506;2023-03-19T18:27:56;13.30;99.90
22319;DHT22;11327;52.334;9.506;2023-03-19T18:31:19;13.30;99.90
22319;DHT22;11327;52.334;9.506;2023-03-19T18:34:40;13.30;99.90
22319;DHT22;11327;52.334;9.506;2023-03-19T18:38:01;13.40;99.90
22319;DHT22;11327;52.334;9.506;2023-03-19T18:41:24;13.20;99.90
22319;DHT22;11327;52.334;9.506;2023-03-19T18:44:47;13.20;99.90
22319;DHT22;11327;52.334;9.506;2023-03-19T18:48:15;13.20;99.90
22319;DHT22;11327;52.334;9.506;2023-03-19T18:51:32;13.10;99.90
22319;DHT22;11327;52.334;9.506;2023-03-19T18:54:53;13.20;99.90
22319;DHT22;11327;52.334;9.506;2023-03-19T18:58:20;13.20;99.90
22319;DHT22;11327;52.334;9.506;2023-03-19T19:01:41;13.00;99.90
22319;DHT22;11327;52.334;9.506;2023-03-19T19:05:02;13.10;99.90
22319;DHT22;11327;52.334;9.506;2023-03-19T19:08:23;13.00;99.90
22319;DHT22;11327;52.334;9.506;2023-03-19T19:11:46;12.90;99.90
22319;DHT22;11327;52.334;9.506;2023-03-19T19:15:14;12.90;99.90
22319;DHT22;11327;52.334;9.506;2023-03-19T19:18:32;12.90;99.90
22319;DHT22;11327;52.334;9.506;2023-03-19T19:21:53;12.80;99.90
22319;DHT22;11327;52.334;9.506;2023-03-19T19:25:20;12.70;99.90
22319;DHT22;11327;52.334;9.506;2023-03-19T19:28:39;12.70;99.90
22319;DHT22;11327;52.334;9.506;2023-03-19T19:32:00;12.70;99.90
22319;DHT22;11327;52.334;9.506;2023-03-19T19:35:26;12.70;99.90
22319;DHT22;11327;52.334;9.506;2023-03-19T19:38:47;12.60;99.90
22319;DHT22;11327;52.334;9.506;2023-03-19T19:42:15;12.50;99.90
22319;DHT22;11327;52.334;9.506;2023-03-19T19:45:37;12.50;99.90
22319;DHT22;11327;52.334;9.506;2023-03-19T19:49:00;12.50;99.90
22319;DHT22;11327;52.334;9.506;2023-03-19T19:52:21;12.40;99.90
22319;DHT22;11327;52.334;9.506;2023-03-19T19:55:43;12.40;99.90
22319;DHT22;11327;52.334;9.506;2023-03-19T19:59:05;12.30;99.90
22319;DHT22;11327;52.334;9.506;2023-03-19T20:02:28;12.20;99.90
22319;DHT22;11327;52.334;9.506;2023-03-19T20:05:49;12.30;99.90
22319;DHT22;11327;52.334;9.506;2023-03-19T20:09:10;12.30;99.90
22319;DHT22;11327;52.334;9.506;2023-03-19T20:12:31;12.30;99.90
22319;DHT22;11327;52.334;9.506;2023-03-19T20:15:55;12.20;99.90
22319;DHT22;11327;52.334;9.506;2023-03-19T20:19:17;12.20;99.90
22319;DHT22;11327;52.334;9.506;2023-03-19T20:22:39;12.20;99.90
22319;DHT22;11327;52.334;9.506;2023-03-19T20:26:00;12.10;99.90
22319;DHT22;11327;52.334;9.506;2023-03-19T20:29:21;12.10;99.90
22319;DHT22;11327;52.334;9.506;2023-03-19T20:32:41;12.10;99.90
22319;DHT22;11327;52.334;9.506;2023-03-19T20:36:03;12.00;99.90
22319;DHT22;11327;52.334;9.506;2023-03-19T20:39:23;12.00;99.90
22319;DHT22;11327;52.334;9.506;2023-03-19T20:42:46;12.00;99.90
22319;DHT22;11327;52.334;9.506;2023-03-19T20:46:09;12.00;99.90
22319;DHT22;11327;52.334;9.506;2023-03-19T20:49:30;11.90;99.90
22319;DHT22;11327;52.334;9.506;2023-03-19T20:52:51;11.90;99.90
22319;DHT22;11327;52.334;9.506;2023-03-19T20:56:16;12.00;99.90
22319;DHT22;11327;52.334;9.506;2023-03-19T20:59:37;11.90;99.90
22319;DHT22;11327;52.334;9.506;2023-03-19T21:02:59;11.90;99.90
22319;DHT22;11327;52.334;9.506;2023-03-19T21:06:22;11.90;99.90
22319;DHT22;11327;52.334;9.506;2023-03-19T21:09:43;11.90;99.90
22319;DHT22;11327;52.334;9.506;2023-03-19T21:13:04;12.00;99.90
22319;DHT22;11327;52.334;9.506;2023-03-19T21:16:25;12.00;99.90
22319;DHT22;11327;52.334;9.506;2023-03-19T21:19:48;12.00;99.90
22319;DHT22;11327;52.334;9.506;2023-03-19T21:26:43;11.90;99.90
22319;DHT22;11327;52.334;9.506;2023-03-19T21:30:06;11.90;99.90
22319;DHT22;11327;52.334;9.506;2023-03-19T21:33:29;11.90;99.90
22319;DHT22;11327;52.334;9.506;2023-03-19T21:36:50;11.90;99.90
22319;DHT22;11327;52.334;9.506;2023-03-19T21:40:14;11.90;99.90
22319;DHT22;11327;52.334;9.506;2023-03-19T21:43:44;11.90;99.90
22319;DHT22;11327;52.334;9.506;2023-03-19T21:47:05;11.90;99.90
22319;DHT22;11327;52.334;9.506;2023-03-19T21:50:28;11.90;99.90
22319;DHT22;11327;52.334;9.506;2023-03-19T21:53:49;11.80;99.90
22319;DHT22;11327;52.334;9.506;2023-03-19T21:57:14;11.80;99.90
22319;DHT22;11327;52.334;9.506;2023-03-19T22:00:35;11.90;99.90
22319;DHT22;11327;52.334;9.506;2023-03-19T22:03:56;11.80;99.90
22319;DHT22;11327;52.334;9.506;2023-03-19T22:07:17;11.80;99.90
22319;DHT22;11327;52.334;9.506;2023-03-19T22:10:38;11.80;99.90
22319;DHT22;11327;52.334;9.506;2023-03-19T22:14:06;11.80;99.90
22319;DHT22;11327;52.334;9.506;2023-03-19T22:17:27;11.70;99.90
22319;DHT22;11327;52.334;9.506;2023-03-19T22:20:49;11.80;99.90
22319;DHT22;11327;52.334;9.506;2023-03-19T22:24:10;11.70;99.90
22319;DHT22;11327;52.334;9.506;2023-03-19T22:27:30;11.70;99.90
22319;DHT22;11327;52.334;9.506;2023-03-19T22:30:51;11.70;99.90
22319;DHT22;11327;52.334;9.506;2023-03-19T22:34:14;11.70;99.90
22319;DHT22;11327;52.334;9.506;2023-03-19T22:37:35;11.80;99.90
22319;DHT22;11327;52.334;9.506;2023-03-19T22:40:56;11.80;99.90
22319;DHT22;11327;52.334;9.506;2023-03-19T22:44:26;11.90;99.90
22319;DHT22;11327;52.334;9.506;2023-03-19T22:47:47;11.90;99.90
22319;DHT22;11327;52.334;9.506;2023-03-19T22:51:12;11.90;99.90
22319;DHT22;11327;52.334;9.506;2023-03-19T22:54:33;11.80;99.90
22319;DHT22;11327;52.334;9.506;2023-03-19T22:57:54;11.70;99.90